Time;durP1;ratioP1;P1;durP2;ratioP2;P2;SDS_P1;SDS_P2;PMS_P1;PMS_P2;Temp;Humidity;BMP_temperature;BMP_pressure;BME280_temperature;BME280_humidity;BME280_pressure;Samples;Min_cycle;Max_cycle;Signal;HPM_P1;HPM_P2
2023/03/27 00:00:56;;;;;;;0.20;0.20;;;3.00;99.90;;;;;;5107539;27;20040;-72
2023/03/27 00:03:24;;;;;;;2.25;0.90;;;3.00;99.90;;;;;;5058771;28;20043;-72
2023/03/27 00:06:02;;;;;;;0.77;0.40;;;2.90;99.90;;;;;;5074274;28;20370;-72
2023/03/27 00:08:28;;;;;;;1.08;0.32;;;2.90;99.90;;;;;;5080861;28;20497;-72
2023/03/27 00:10:54;;;;;;;1.05;0.50;;;2.80;99.90;;;;;;5091557;28;20086;-72
2023/03/27 00:13:20;;;;;;;1.08;0.30;;;2.80;99.90;;;;;;5071483;28;20060;-72
2023/03/27 00:15:45;;;;;;;1.00;0.20;;;2.70;99.90;;;;;;5077093;28;20036;-72
2023/03/27 00:18:12;;;;;;;0.20;0.10;;;2.80;99.90;;;;;;5074733;28;20075;-72
2023/03/27 00:20:38;;;;;;;1.00;0.30;;;2.80;99.90;;;;;;5062011;28;20040;-72
2023/03/27 00:23:05;;;;;;;4.32;0.60;;;2.80;99.90;;;;;;5078858;28;20032;-72
2023/03/27 00:25:31;;;;;;;0.93;0.40;;;2.70;99.90;;;;;;5063679;28;20115;-72
2023/03/27 00:27:58;;;;;;;1.05;0.43;;;2.70;99.90;;;;;;5077211;28;20401;-72
2023/03/27 00:30:28;;;;;;;2.35;0.30;;;2.70;99.90;;;;;;5101635;27;20037;-72
2023/03/27 00:32:54;;;;;;;0.47;0.30;;;2.80;99.90;;;;;;5076005;28;20109;-72
2023/03/27 00:35:21;;;;;;;0.32;0.25;;;2.90;99.90;;;;;;5078678;28;20035;-72
2023/03/27 00:37:47;;;;;;;0.65;0.60;;;3.10;99.90;;;;;;5055583;28;20040;-72
2023/03/27 00:40:14;;;;;;;4.68;0.45;;;3.20;99.90;;;;;;5093528;28;20038;-72
2023/03/27 00:42:43;;;;;;;1.95;0.30;;;3.30;99.90;;;;;;5077280;28;20036;-72
2023/03/27 00:45:23;;;;;;;0.63;0.22;;;3.40;99.90;;;;;;5074315;28;20123;-72
2023/03/27 00:47:56;;;;;;;1.88;0.25;;;3.40;99.90;;;;;;5077610;28;20028;-72
2023/03/27 00:50:27;;;;;;;0.38;0.22;;;3.40;99.90;;;;;;5074036;28;20508;-72
2023/03/27 00:52:59;;;;;;;0.40;0.30;;;3.40;99.90;;;;;;5074108;28;20050;-72
2023/03/27 00:55:30;;;;;;;3.97;0.35;;;3.40;99.90;;;;;;5076666;28;20037;-72
2023/03/27 00:58:00;;;;;;;0.88;0.50;;;3.30;99.90;;;;;;5096205;28;20048;-72
2023/03/27 01:00:26;;;;;;;0.60;0.30;;;3.30;99.90;;;;;;5079717;28;20074;-72
2023/03/27 01:02:54;;;;;;;0.98;0.35;;;3.20;99.90;;;;;;5052830;28;20056;-72
2023/03/27 01:05:20;;;;;;;0.52;0.25;;;3.20;99.90;;;;;;5077064;28;20040;-72
2023/03/27 01:07:47;;;;;;;1.05;0.50;;;3.10;99.90;;;;;;5077349;28;20138;-72
2023/03/27 01:10:15;;;;;;;0.20;0.20;;;3.00;99.90;;;;;;5079174;28;20043;-72
2023/03/27 01:12:50;;;;;;;2.92;0.43;;;3.00;99.90;;;;;;5088748;28;20084;-72
2023/03/27 01:15:33;;;;;;;0.30;0.20;;;2.90;99.90;;;;;;5075863;28;20277;-72
2023/03/27 01:18:24;;;;;;;1.15;0.40;;;2.90;99.90;;;;;;5075047;28;20052;-72
2023/03/27 01:21:28;;;;;;;1.55;0.28;;;2.80;99.90;;;;;;5072562;28;20074;-72
2023/03/27 01:24:25;;;;;;;1.08;0.20;;;2.90;99.90;;;;;;5072820;28;20073;-72
2023/03/27 01:27:00;;;;;;;1.17;0.50;;;2.80;99.90;;;;;;5082682;28;20044;-72
2023/03/27 01:29:35;;;;;;;1.27;0.90;;;2.80;99.90;;;;;;5077244;28;20492;-72
2023/03/27 01:32:17;;;;;;;0.40;0.13;;;2.70;99.90;;;;;;5077215;28;20032;-72
2023/03/27 01:35:17;;;;;;;0.82;0.32;;;2.70;99.90;;;;;;5072236;28;20562;-72
2023/03/27 01:37:59;;;;;;;4.53;0.45;;;2.70;99.90;;;;;;5074529;28;20082;-72
2023/03/27 01:40:31;;;;;;;2.42;0.30;;;2.60;99.90;;;;;;5074831;28;20539;-72
2023/03/27 01:43:02;;;;;;;0.65;0.22;;;2.50;99.90;;;;;;5076849;28;20127;-72
2023/03/27 01:45:49;;;;;;;1.38;0.30;;;2.50;99.90;;;;;;5081340;28;21168;-72
2023/03/27 01:48:41;;;;;;;1.42;0.50;;;2.40;99.90;;;;;;5092671;28;20378;-72
2023/03/27 01:51:24;;;;;;;1.67;0.22;;;2.40;99.90;;;;;;5069132;28;20412;-72
2023/03/27 01:53:57;;;;;;;0.75;0.35;;;2.40;99.90;;;;;;5074489;28;20055;-72
2023/03/27 01:56:38;;;;;;;0.65;0.25;;;2.30;99.90;;;;;;5055229;28;20109;-71
2023/03/27 01:59:17;;;;;;;1.35;0.50;;;2.30;99.90;;;;;;5109440;27;20032;-72
2023/03/27 02:01:49;;;;;;;0.40;0.28;;;2.30;99.90;;;;;;5078650;28;20036;-72
2023/03/27 02:04:20;;;;;;;0.47;0.30;;;2.30;99.90;;;;;;5076168;28;20436;-72
2023/03/27 02:06:56;;;;;;;1.17;0.30;;;2.30;99.90;;;;;;5075270;28;20036;-72
2023/03/27 02:09:42;;;;;;;;;;;2.30;99.90;;;;;;5070355;28;22026;-72
2023/03/27 02:12:14;;;;;;;0.25;0.10;;;2.30;99.90;;;;;;5106521;28;19934;-72
2023/03/27 02:14:50;;;;;;;2.00;0.32;;;2.20;99.90;;;;;;5076744;28;20409;-72
2023/03/27 02:17:19;;;;;;;0.30;0.25;;;2.30;99.90;;;;;;5073377;28;20052;-72
2023/03/27 02:19:51;;;;;;;0.15;0.10;;;2.20;99.90;;;;;;5072689;28;20048;-72
2023/03/27 02:22:17;;;;;;;2.20;0.43;;;2.20;99.90;;;;;;5075476;28;20226;-72
2023/03/27 02:24:43;;;;;;;1.52;0.20;;;2.20;99.90;;;;;;5076562;28;20041;-72
2023/03/27 02:27:54;;;;;;;0.10;0.10;;;2.20;99.90;;;;;;5058722;28;20035;-71
2023/03/27 02:30:39;;;;;;;1.25;0.40;;;2.20;99.90;;;;;;5068350;28;20494;-72
2023/03/27 02:33:55;;;;;;;1.77;0.20;;;2.20;99.90;;;;;;5072960;28;20048;-72
2023/03/27 02:36:27;;;;;;;2.17;0.35;;;2.10;99.90;;;;;;5069207;28;20056;-72
2023/03/27 02:39:07;;;;;;;1.85;0.10;;;2.10;99.90;;;;;;5108399;28;20039;-72
2023/03/27 02:41:45;;;;;;;1.85;0.22;;;2.10;99.90;;;;;;5077034;28;20043;-72
2023/03/27 02:44:33;;;;;;;0.22;0.10;;;2.10;99.90;;;;;;5076415;28;20079;-72
2023/03/27 02:47:09;;;;;;;0.17;0.10;;;2.10;99.90;;;;;;5106489;27;20123;-72
2023/03/27 02:49:47;;;;;;;;;;;2.10;99.90;;;;;;5092508;28;20036;-72
2023/03/27 02:52:23;;;;;;;2.45;0.47;;;2.10;99.90;;;;;;5103389;28;19923;-72
2023/03/27 02:54:58;;;;;;;1.60;0.28;;;2.10;99.90;;;;;;5081191;28;20089;-72
2023/03/27 02:57:26;;;;;;;0.90;0.30;;;2.10;99.90;;;;;;5082704;28;20078;-72
2023/03/27 02:59:56;;;;;;;1.05;0.35;;;2.10;99.90;;;;;;5055439;28;20064;-72
2023/03/27 03:02:28;;;;;;;0.38;0.20;;;2.20;99.90;;;;;;5071312;28;20419;-72
2023/03/27 03:05:16;;;;;;;0.13;0.13;;;2.20;99.90;;;;;;5054772;28;20044;-72
2023/03/27 03:07:44;;;;;;;2.85;0.30;;;2.30;99.90;;;;;;5074032;28;20028;-72
2023/03/27 03:10:10;;;;;;;0.82;0.20;;;2.40;99.90;;;;;;5080093;28;20045;-72
2023/03/27 03:12:36;;;;;;;0.82;0.30;;;2.30;99.90;;;;;;5072613;28;20051;-72
2023/03/27 03:15:02;;;;;;;0.50;0.30;;;2.50;99.90;;;;;;5076814;28;20126;-72
2023/03/27 03:17:27;;;;;;;0.80;0.30;;;2.50;99.90;;;;;;5076408;28;20044;-72
2023/03/27 03:19:53;;;;;;;0.65;0.17;;;2.50;99.90;;;;;;5075766;28;20693;-72
2023/03/27 03:22:19;;;;;;;1.10;0.38;;;2.50;99.90;;;;;;5075604;28;20035;-72
2023/03/27 03:24:44;;;;;;;1.75;0.60;;;2.50;99.90;;;;;;5078040;28;20041;-72
2023/03/27 03:27:11;;;;;;;2.05;0.50;;;2.50;99.90;;;;;;5081463;28;20123;-72
2023/03/27 03:29:37;;;;;;;2.47;0.55;;;2.50;99.90;;;;;;5077144;28;20133;-72
2023/03/27 03:32:06;;;;;;;0.30;0.15;;;2.40;99.90;;;;;;5051983;28;20044;-72
2023/03/27 03:34:32;;;;;;;0.80;0.22;;;2.40;99.90;;;;;;5077381;28;20046;-72
2023/03/27 03:36:59;;;;;;;4.80;0.20;;;2.40;99.90;;;;;;5107588;27;20043;-72
2023/03/27 03:39:24;;;;;;;0.43;0.20;;;2.40;99.90;;;;;;5099221;27;20044;-72
2023/03/27 03:41:50;;;;;;;7.78;0.47;;;2.40;99.90;;;;;;5057440;28;20456;-72
2023/03/27 03:44:17;;;;;;;1.65;0.70;;;2.40;99.90;;;;;;5059449;28;20032;-72
2023/03/27 03:46:42;;;;;;;2.78;0.30;;;2.50;99.90;;;;;;5061675;28;20039;-72
2023/03/27 03:49:08;;;;;;;0.30;0.25;;;2.50;99.90;;;;;;5080883;28;20036;-72
2023/03/27 03:51:36;;;;;;;0.52;0.30;;;2.50;99.90;;;;;;5064831;28;20047;-72
2023/03/27 03:54:04;;;;;;;1.13;0.30;;;2.50;99.90;;;;;;5080915;28;20044;-72
2023/03/27 03:56:30;;;;;;;0.88;0.17;;;2.50;99.90;;;;;;5113608;27;20043;-72
2023/03/27 03:58:56;;;;;;;2.33;0.50;;;2.50;99.90;;;;;;5053878;28;20036;-72
2023/03/27 04:01:22;;;;;;;1.92;0.20;;;2.50;99.90;;;;;;5059782;28;20686;-72
2023/03/27 04:03:48;;;;;;;1.35;0.60;;;2.40;99.90;;;;;;5072298;28;20131;-72
2023/03/27 04:06:20;;;;;;;1.98;0.20;;;2.40;99.90;;;;;;5076924;28;20119;-72
2023/03/27 04:08:46;;;;;;;0.95;0.25;;;2.40;99.90;;;;;;5110885;27;20036;-72
2023/03/27 04:11:12;;;;;;;8.23;0.47;;;2.40;99.90;;;;;;5058313;28;20397;-72
2023/03/27 04:13:37;;;;;;;2.97;0.40;;;2.40;99.90;;;;;;5077614;28;20049;-72
2023/03/27 04:16:03;;;;;;;2.03;0.38;;;2.40;99.90;;;;;;5079495;28;20032;-72
2023/03/27 04:18:31;;;;;;;0.28;0.10;;;2.30;99.90;;;;;;5073070;28;20509;-72
2023/03/27 04:21:00;;;;;;;1.35;0.40;;;2.30;99.90;;;;;;5054375;28;20028;-72
2023/03/27 04:23:29;;;;;;;1.88;0.43;;;2.30;99.90;;;;;;5079054;28;20116;-72
2023/03/27 04:25:58;;;;;;;2.25;0.47;;;2.30;99.90;;;;;;5077361;28;20585;-72
2023/03/27 04:28:25;;;;;;;1.25;0.55;;;2.30;99.90;;;;;;5074783;28;20573;-72
2023/03/27 04:30:51;;;;;;;0.93;0.40;;;2.30;99.90;;;;;;5055558;28;20085;-72
2023/03/27 04:33:18;;;;;;;8.48;0.70;;;2.30;99.90;;;;;;5077531;28;20449;-72
2023/03/27 04:35:49;;;;;;;1.65;0.35;;;2.30;99.90;;;;;;5074395;28;20489;-72
2023/03/27 04:38:15;;;;;;;6.60;0.50;;;2.30;99.90;;;;;;5072641;28;20059;-72
2023/03/27 04:40:44;;;;;;;4.60;0.47;;;2.30;99.90;;;;;;5072188;28;20040;-72
2023/03/27 04:43:11;;;;;;;3.20;0.40;;;2.30;99.90;;;;;;5056083;28;20051;-72
2023/03/27 04:45:37;;;;;;;1.70;0.28;;;2.30;99.90;;;;;;5055614;28;20036;-72
2023/03/27 04:48:04;;;;;;;1.30;0.30;;;2.40;99.90;;;;;;5073671;28;20513;-72
2023/03/27 04:50:30;;;;;;;5.13;0.82;;;2.40;99.90;;;;;;5073703;28;20249;-72
2023/03/27 04:52:59;;;;;;;1.85;0.40;;;2.40;99.90;;;;;;5076709;28;20036;-72
2023/03/27 04:55:25;;;;;;;1.98;0.57;;;2.40;99.90;;;;;;5063725;28;20425;-72
2023/03/27 04:57:52;;;;;;;2.85;0.50;;;2.40;99.90;;;;;;5091040;28;20051;-72
2023/03/27 05:00:18;;;;;;;2.85;0.38;;;2.50;99.90;;;;;;5079169;28;20040;-73
2023/03/27 05:02:47;;;;;;;0.38;0.30;;;2.50;99.90;;;;;;5074889;28;20154;-74
2023/03/27 05:05:13;;;;;;;3.75;0.68;;;2.50;99.90;;;;;;5076596;28;20092;-73
2023/03/27 05:07:43;;;;;;;1.05;0.40;;;2.50;99.90;;;;;;5075443;28;20409;-72
2023/03/27 05:10:09;;;;;;;7.00;0.40;;;2.50;99.90;;;;;;5075409;28;20051;-72
2023/03/27 05:12:35;;;;;;;1.15;0.40;;;2.50;99.90;;;;;;5108356;27;20056;-72
2023/03/27 05:15:04;;;;;;;0.32;0.20;;;2.50;99.90;;;;;;5079274;28;20451;-72
2023/03/27 05:17:31;;;;;;;1.00;0.50;;;2.50;99.90;;;;;;5051808;28;20090;-72
2023/03/27 05:19:56;;;;;;;0.30;0.20;;;2.50;99.90;;;;;;5077475;28;20051;-72
2023/03/27 05:22:22;;;;;;;0.32;0.20;;;2.50;99.90;;;;;;5075260;28;20209;-72
2023/03/27 05:24:48;;;;;;;2.97;0.45;;;2.40;99.90;;;;;;5078048;28;20028;-72
2023/03/27 05:27:14;;;;;;;1.42;0.52;;;2.40;99.90;;;;;;5076759;28;20033;-72
2023/03/27 05:29:39;;;;;;;2.40;0.38;;;2.40;99.90;;;;;;5074128;28;20066;-72
2023/03/27 05:32:05;;;;;;;5.68;0.50;;;2.40;99.90;;;;;;5076017;28;20097;-72
2023/03/27 05:34:33;;;;;;;3.03;0.90;;;2.30;99.90;;;;;;5080944;28;20036;-72
2023/03/27 05:37:04;;;;;;;2.33;0.38;;;2.30;99.90;;;;;;5079457;28;20097;-72
2023/03/27 05:39:30;;;;;;;1.70;0.57;;;2.30;99.90;;;;;;5088181;28;20095;-72
2023/03/27 05:41:56;;;;;;;2.58;0.50;;;2.30;99.90;;;;;;5079318;28;20143;-72
2023/03/27 05:44:22;;;;;;;0.20;0.20;;;2.30;99.90;;;;;;5049909;28;20055;-72
2023/03/27 05:46:48;;;;;;;0.38;0.22;;;2.30;99.90;;;;;;5071543;28;20040;-72
2023/03/27 05:49:14;;;;;;;0.55;0.40;;;2.30;99.90;;;;;;5077038;28;20032;-72
2023/03/27 05:51:40;;;;;;;1.42;0.50;;;2.30;99.90;;;;;;5087550;28;20044;-71
2023/03/27 05:54:05;;;;;;;3.00;0.50;;;2.20;99.90;;;;;;5072085;28;20119;-72
2023/03/27 05:56:31;;;;;;;1.27;0.40;;;2.30;99.90;;;;;;5079861;28;20036;-72
2023/03/27 05:58:57;;;;;;;0.80;0.50;;;2.30;99.90;;;;;;5076118;28;20047;-72
2023/03/27 06:01:22;;;;;;;3.25;0.90;;;2.30;99.90;;;;;;5071530;28;20032;-72
2023/03/27 06:03:53;;;;;;;3.83;0.63;;;2.30;99.90;;;;;;5080432;28;20100;-72
2023/03/27 06:06:19;;;;;;;4.80;0.55;;;2.30;99.90;;;;;;5071746;28;20418;-72
2023/03/27 06:08:45;;;;;;;0.90;0.32;;;2.30;99.90;;;;;;5073644;28;20047;-71
2023/03/27 06:11:12;;;;;;;0.20;0.17;;;2.40;99.90;;;;;;5073038;28;20044;-71
2023/03/27 06:13:38;;;;;;;1.35;0.20;;;2.50;99.90;;;;;;5076885;28;20056;-72
2023/03/27 06:16:04;;;;;;;0.45;0.10;;;2.60;99.90;;;;;;5068144;28;20070;-72
2023/03/27 06:18:31;;;;;;;6.13;0.40;;;2.60;99.90;;;;;;5075218;28;20513;-71
2023/03/27 06:20:57;;;;;;;0.00;0.00;;;2.70;99.90;;;;;;5078485;28;20032;-71
2023/03/27 06:23:22;;;;;;;1.40;0.20;;;2.80;99.90;;;;;;5071004;28;20131;-72
2023/03/27 06:25:50;;;;;;;0.30;0.03;;;2.80;99.90;;;;;;5078459;28;20118;-72
2023/03/27 06:28:15;;;;;;;0.08;0.08;;;2.80;99.90;;;;;;5057937;28;20048;-72
2023/03/27 06:30:41;;;;;;;0.47;0.25;;;2.90;99.90;;;;;;5068099;28;20090;-72
2023/03/27 06:33:08;;;;;;;0.22;0.10;;;2.90;99.90;;;;;;5073171;28;20503;-74
2023/03/27 06:35:34;;;;;;;2.03;0.15;;;3.00;99.90;;;;;;5099678;27;20044;-72
2023/03/27 06:38:01;;;;;;;3.55;0.20;;;3.00;99.90;;;;;;5072757;28;20044;-72
2023/03/27 06:40:30;;;;;;;0.20;0.15;;;3.10;99.90;;;;;;5074976;28;20036;-72
2023/03/27 06:43:17;;;;;;;0.35;0.28;;;3.10;99.90;;;;;;5105090;27;20036;-72
2023/03/27 06:45:45;;;;;;;0.43;0.20;;;3.10;99.90;;;;;;5059469;28;20446;-71
2023/03/27 06:48:12;;;;;;;1.80;0.57;;;3.20;99.90;;;;;;5049496;28;20052;-72
2023/03/27 06:50:38;;;;;;;1.02;0.20;;;3.20;99.90;;;;;;5068652;28;20049;-72
2023/03/27 06:53:04;;;;;;;0.47;0.10;;;3.20;99.90;;;;;;5066390;28;20118;-72
2023/03/27 06:55:31;;;;;;;0.10;0.10;;;3.20;99.90;;;;;;5079009;28;20082;-72
2023/03/27 06:57:59;;;;;;;2.60;0.47;;;3.20;99.90;;;;;;5072185;28;20039;-72
2023/03/27 07:00:28;;;;;;;1.50;0.50;;;3.20;99.90;;;;;;5083041;28;20119;-72
2023/03/27 07:02:55;;;;;;;0.73;0.20;;;3.20;99.90;;;;;;5075158;28;20040;-72
2023/03/27 07:05:23;;;;;;;1.02;0.10;;;3.20;99.90;;;;;;5085429;28;20036;-72
2023/03/27 07:07:49;;;;;;;5.50;0.35;;;3.20;99.90;;;;;;5063292;28;20098;-72
2023/03/27 07:10:14;;;;;;;1.80;0.40;;;3.10;99.90;;;;;;5079500;28;20105;-72
2023/03/27 07:12:44;;;;;;;0.63;0.35;;;3.20;99.90;;;;;;5073924;28;20051;-72
2023/03/27 07:15:10;;;;;;;0.38;0.38;;;3.20;99.90;;;;;;5057234;28;20041;-72
2023/03/27 07:17:36;;;;;;;0.32;0.13;;;3.20;99.90;;;;;;5078529;28;20113;-72
2023/03/27 07:20:04;;;;;;;0.52;0.25;;;3.20;99.90;;;;;;5073965;28;20048;-72
2023/03/27 07:22:31;;;;;;;3.03;0.30;;;3.30;99.90;;;;;;5074297;28;20139;-72
2023/03/27 07:24:57;;;;;;;1.08;0.20;;;3.30;99.90;;;;;;5080172;28;20461;-71
2023/03/27 07:27:24;;;;;;;1.15;0.20;;;3.30;99.90;;;;;;5091223;28;20043;-72
2023/03/27 07:29:50;;;;;;;2.78;0.25;;;3.40;99.90;;;;;;5066232;28;20059;-72
2023/03/27 07:32:16;;;;;;;3.17;0.52;;;3.40;99.90;;;;;;5077518;28;20052;-72
2023/03/27 07:34:42;;;;;;;2.45;0.20;;;3.40;99.90;;;;;;5055689;28;20051;-72
2023/03/27 07:37:07;;;;;;;2.40;0.30;;;3.50;99.90;;;;;;5079410;28;20040;-72
2023/03/27 07:39:34;;;;;;;4.55;0.30;;;3.60;99.90;;;;;;5093529;28;20047;-72
2023/03/27 07:41:59;;;;;;;0.20;0.20;;;3.60;99.90;;;;;;5069756;28;20032;-72
2023/03/27 07:44:25;;;;;;;0.30;0.10;;;3.60;99.90;;;;;;5086304;28;20086;-72
2023/03/27 07:46:51;;;;;;;0.70;0.30;;;3.70;99.90;;;;;;5070087;28;20028;-72
2023/03/27 07:49:18;;;;;;;0.50;0.28;;;3.80;99.90;;;;;;5080506;28;20055;-71
2023/03/27 07:51:44;;;;;;;2.00;0.60;;;3.90;99.90;;;;;;5084038;28;20044;-72
2023/03/27 07:54:12;;;;;;;2.00;0.25;;;3.90;99.90;;;;;;5072726;28;20119;-72
2023/03/27 07:56:38;;;;;;;4.97;0.47;;;4.00;99.90;;;;;;5088521;28;20064;-72
2023/03/27 07:59:03;;;;;;;2.40;0.25;;;4.10;99.90;;;;;;5086196;28;20036;-72
2023/03/27 08:01:29;;;;;;;0.70;0.25;;;4.20;99.90;;;;;;5072182;28;20111;-72
2023/03/27 08:03:56;;;;;;;0.85;0.35;;;4.40;99.90;;;;;;5072491;28;20097;-72
2023/03/27 08:06:22;;;;;;;0.88;0.22;;;4.50;99.90;;;;;;5075510;28;20493;-72
2023/03/27 08:08:49;;;;;;;0.95;0.40;;;4.60;99.90;;;;;;5076577;28;20036;-72
2023/03/27 08:11:15;;;;;;;3.72;0.60;;;4.70;99.90;;;;;;5062189;28;20048;-72
2023/03/27 08:13:41;;;;;;;0.98;0.30;;;4.70;99.90;;;;;;5077353;28;20064;-72
2023/03/27 08:16:17;;;;;;;1.25;0.20;;;4.60;99.90;;;;;;5072149;28;20060;-72
2023/03/27 08:18:48;;;;;;;0.68;0.28;;;4.20;99.90;;;;;;5071589;28;20072;-72
2023/03/27 08:21:14;;;;;;;0.82;0.20;;;3.90;99.90;;;;;;5083013;28;20473;-72
2023/03/27 08:23:40;;;;;;;1.25;0.25;;;3.60;99.90;;;;;;5085683;28;20477;-72
2023/03/27 08:26:06;;;;;;;0.43;0.25;;;3.40;99.90;;;;;;5088206;28;20237;-72
2023/03/27 08:28:34;;;;;;;2.10;0.30;;;3.30;99.90;;;;;;5068910;28;20067;-72
2023/03/27 08:31:01;;;;;;;0.30;0.30;;;3.30;99.90;;;;;;5073953;28;20040;-73
2023/03/27 08:33:28;;;;;;;0.95;0.40;;;3.30;99.90;;;;;;5085868;28;20393;-73
2023/03/27 08:35:56;;;;;;;0.65;0.30;;;3.30;99.90;;;;;;5067976;28;20383;-72
2023/03/27 08:38:22;;;;;;;0.20;0.10;;;3.40;99.90;;;;;;5055498;28;20063;-72
2023/03/27 08:40:51;;;;;;;0.30;0.20;;;3.40;99.90;;;;;;5102319;27;20659;-72
2023/03/27 08:43:27;;;;;;;0.47;0.20;;;3.40;99.90;;;;;;5069216;28;20075;-72
2023/03/27 08:45:59;;;;;;;1.05;0.30;;;3.60;99.90;;;;;;5087554;27;20036;-72
2023/03/27 08:48:35;;;;;;;1.77;0.50;;;3.60;99.90;;;;;;5072908;28;20782;-72
2023/03/27 08:51:15;;;;;;;0.90;0.47;;;3.70;99.90;;;;;;5068656;28;20093;-72
2023/03/27 08:53:48;;;;;;;4.65;0.35;;;3.80;99.90;;;;;;5106665;27;20653;-72
2023/03/27 08:56:15;;;;;;;1.38;0.30;;;3.80;99.90;;;;;;5071213;28;20047;-72
2023/03/27 08:58:42;;;;;;;0.30;0.20;;;3.90;99.90;;;;;;5070317;28;20032;-72
2023/03/27 09:01:45;;;;;;;1.20;0.45;;;4.00;99.90;;;;;;5073691;28;20485;-76
2023/03/27 09:04:11;;;;;;;0.13;0.13;;;4.10;99.90;;;;;;5025955;28;20048;-71
2023/03/27 09:07:04;;;;;;;1.15;0.40;;;4.10;99.90;;;;;;5097344;27;20056;-71
2023/03/27 09:09:36;;;;;;;0.25;0.20;;;4.20;99.90;;;;;;5062511;28;20134;-72
2023/03/27 09:12:19;;;;;;;0.52;0.10;;;4.30;99.90;;;;;;5093667;28;20567;-71
2023/03/27 09:14:57;;;;;;;1.30;0.15;;;4.30;99.90;;;;;;5070795;28;20131;-72
2023/03/27 09:17:31;;;;;;;3.10;0.63;;;4.40;99.90;;;;;;5068964;28;20067;-72
2023/03/27 09:20:24;;;;;;;0.30;0.20;;;4.50;99.90;;;;;;5075011;28;20032;-71
2023/03/27 09:22:56;;;;;;;0.63;0.25;;;4.60;99.90;;;;;;5072472;28;20040;-71
2023/03/27 09:25:31;;;;;;;2.00;0.40;;;4.70;99.90;;;;;;5082826;28;20246;-71
2023/03/27 09:27:57;;;;;;;0.35;0.20;;;4.70;99.90;;;;;;5080288;28;20046;-71
2023/03/27 09:30:31;;;;;;;1.30;0.20;;;4.80;99.90;;;;;;5055070;28;20039;-71
2023/03/27 09:33:03;;;;;;;2.55;0.45;;;4.90;99.90;;;;;;5061928;28;20083;-71
2023/03/27 09:35:29;;;;;;;1.13;0.35;;;4.90;99.90;;;;;;5073678;28;20481;-71
2023/03/27 09:38:02;;;;;;;0.85;0.50;;;4.80;99.90;;;;;;5071827;28;20133;-71
2023/03/27 09:40:55;;;;;;;0.47;0.15;;;4.80;99.90;;;;;;5075436;28;20045;-71
2023/03/27 09:43:50;;;;;;;1.42;0.30;;;4.80;99.90;;;;;;5070384;28;20043;-71
2023/03/27 09:46:18;;;;;;;0.57;0.30;;;4.90;99.90;;;;;;5069156;28;20047;-71
2023/03/27 09:48:53;;;;;;;0.20;0.10;;;4.90;99.90;;;;;;5082344;28;20032;-73
2023/03/27 09:51:42;;;;;;;0.32;0.25;;;4.90;99.90;;;;;;5065328;28;20413;-75
2023/03/27 09:54:13;;;;;;;0.45;0.13;;;5.00;99.90;;;;;;5070745;28;20563;-71
2023/03/27 09:56:42;;;;;;;0.40;0.30;;;5.10;99.90;;;;;;5100199;27;20056;-71
2023/03/27 09:59:19;;;;;;;0.57;0.25;;;5.20;99.90;;;;;;5072075;28;20528;-71
2023/03/27 10:01:49;;;;;;;1.55;0.32;;;5.30;99.90;;;;;;5073915;28;20320;-71
2023/03/27 10:04:18;;;;;;;1.75;0.43;;;5.40;99.90;;;;;;5066676;28;20032;-71
2023/03/27 10:06:58;;;;;;;0.85;0.20;;;5.50;99.90;;;;;;5086390;28;20119;-72
2023/03/27 10:09:33;;;;;;;0.68;0.28;;;5.50;99.90;;;;;;5076767;28;20242;-71
2023/03/27 10:12:19;;;;;;;0.40;0.17;;;5.60;99.90;;;;;;5054800;28;20097;-71
2023/03/27 10:14:50;;;;;;;0.52;0.20;;;5.60;99.90;;;;;;5059959;28;20044;-71
2023/03/27 10:17:27;;;;;;;5.68;0.30;;;5.60;99.90;;;;;;5059224;28;20044;-71
2023/03/27 10:20:03;;;;;;;0.30;0.20;;;5.70;99.90;;;;;;5081971;28;20501;-71
2023/03/27 10:22:32;;;;;;;0.50;0.20;;;5.70;99.90;;;;;;5065080;28;20115;-71
2023/03/27 10:25:01;;;;;;;0.13;0.13;;;5.80;99.90;;;;;;5076422;28;20370;-71
2023/03/27 10:27:32;;;;;;;0.43;0.20;;;5.80;99.90;;;;;;5077535;28;20044;-71
2023/03/27 10:29:57;;;;;;;0.95;0.17;;;5.80;99.90;;;;;;5079362;28;20127;-72
2023/03/27 10:32:46;;;;;;;1.13;0.52;;;5.80;99.90;;;;;;5075510;28;20135;-71
2023/03/27 10:35:22;;;;;;;0.70;0.30;;;5.70;99.90;;;;;;5059784;28;20044;-72
2023/03/27 10:37:50;;;;;;;0.32;0.17;;;5.70;99.90;;;;;;5066196;28;20563;-71
2023/03/27 10:40:23;;;;;;;0.88;0.43;;;5.80;99.90;;;;;;5079548;28;20053;-71
2023/03/27 10:42:49;;;;;;;0.93;0.10;;;5.80;99.90;;;;;;5079807;28;20046;-72
2023/03/27 10:45:18;;;;;;;0.57;0.20;;;5.80;99.90;;;;;;5081249;28;20893;-71
2023/03/27 10:47:54;;;;;;;0.10;0.10;;;5.90;99.90;;;;;;5109612;27;20043;-71
2023/03/27 10:50:22;;;;;;;0.43;0.20;;;5.90;99.90;;;;;;5082386;28;20051;-71
2023/03/27 10:53:15;;;;;;;1.15;0.20;;;5.90;99.80;;;;;;5076192;28;20032;-71
2023/03/27 10:56:12;;;;;;;2.50;0.30;;;6.00;99.90;;;;;;5108978;27;20788;-71
2023/03/27 10:58:44;;;;;;;1.38;0.10;;;6.10;96.20;;;;;;5098568;28;20547;-72
2023/03/27 11:01:19;;;;;;;3.88;0.40;;;6.20;99.00;;;;;;5080025;28;20363;-71
2023/03/27 11:04:09;;;;;;;0.32;0.22;;;6.20;95.20;;;;;;5070229;28;20605;-71
2023/03/27 11:06:42;;;;;;;1.45;0.20;;;6.20;96.70;;;;;;5106429;27;20048;-72
2023/03/27 11:09:32;;;;;;;1.15;0.20;;;6.30;98.80;;;;;;5075380;28;20044;-71
2023/03/27 11:12:03;;;;;;;0.63;0.10;;;6.40;95.30;;;;;;5092509;27;20063;-71
2023/03/27 11:14:47;;;;;;;1.73;0.28;;;6.40;97.00;;;;;;5078532;28;20032;-71
2023/03/27 11:17:19;;;;;;;3.83;0.20;;;6.40;96.80;;;;;;5080792;28;20380;-71
2023/03/27 11:20:05;;;;;;;1.33;0.30;;;6.50;98.30;;;;;;5104979;27;20044;-72
2023/03/27 11:22:41;;;;;;;0.88;0.30;;;6.50;99.10;;;;;;5069723;28;20047;-72
2023/03/27 11:25:21;;;;;;;2.50;0.38;;;6.50;96.00;;;;;;5073882;28;20055;-72
2023/03/27 11:28:02;;;;;;;0.40;0.25;;;6.40;90.50;;;;;;5070999;28;20078;-72
2023/03/27 11:30:43;;;;;;;0.35;0.10;;;6.30;93.50;;;;;;5103603;28;20036;-72
2023/03/27 11:33:39;;;;;;;0.63;0.20;;;6.40;94.50;;;;;;5063152;28;20032;-72
2023/03/27 11:36:18;;;;;;;1.25;0.13;;;6.40;93.90;;;;;;5088597;28;20027;-72
2023/03/27 11:38:51;;;;;;;0.65;0.10;;;6.50;95.10;;;;;;5073289;28;20047;-72
2023/03/27 11:41:17;;;;;;;0.68;0.10;;;6.40;94.40;;;;;;5086819;28;20037;-72
2023/03/27 11:43:42;;;;;;;0.73;0.10;;;6.50;90.20;;;;;;5095376;28;20494;-72
2023/03/27 11:46:29;;;;;;;1.45;0.10;;;6.60;94.50;;;;;;5070605;28;20042;-72
2023/03/27 11:49:10;;;;;;;0.38;0.20;;;6.70;93.80;;;;;;5087424;28;20052;-72
2023/03/27 11:51:56;;;;;;;0.20;0.20;;;6.80;96.00;;;;;;5068930;28;20564;-72
2023/03/27 11:55:05;;;;;;;3.30;0.40;;;6.80;97.60;;;;;;5070249;28;20127;-72
2023/03/27 11:57:43;;;;;;;1.50;0.20;;;6.80;97.90;;;;;;5069928;28;20064;-72
2023/03/27 12:00:12;;;;;;;0.63;0.28;;;6.80;99.10;;;;;;5084255;28;20079;-72
2023/03/27 12:03:05;;;;;;;0.00;0.00;;;6.60;99.50;;;;;;5090388;28;20131;-72
2023/03/27 12:05:34;;;;;;;0.13;0.00;;;6.30;99.90;;;;;;5089004;28;20123;-72
2023/03/27 12:08:16;;;;;;;1.17;0.38;;;6.00;99.90;;;;;;5072796;28;20036;-72
2023/03/27 12:10:46;;;;;;;1.88;0.30;;;5.90;99.90;;;;;;5084888;28;20303;-72
2023/03/27 12:13:15;;;;;;;1.20;0.32;;;5.80;99.90;;;;;;5072928;28;20058;-72
2023/03/27 12:15:53;;;;;;;2.00;0.40;;;5.80;99.90;;;;;;5087279;28;20047;-72
2023/03/27 12:18:40;;;;;;;1.38;0.20;;;5.80;99.90;;;;;;5053305;28;20516;-72
2023/03/27 12:21:16;;;;;;;1.15;0.22;;;5.80;99.90;;;;;;5069759;28;20121;-72
2023/03/27 12:23:42;;;;;;;1.55;0.10;;;5.80;99.90;;;;;;5052892;28;20344;-72
2023/03/27 12:26:50;;;;;;;1.40;0.40;;;5.90;99.90;;;;;;5070785;28;20178;-72
2023/03/27 12:29:44;;;;;;;0.20;0.15;;;6.00;99.20;;;;;;5069142;28;20533;-73
2023/03/27 12:32:41;;;;;;;0.30;0.20;;;6.10;99.60;;;;;;5083378;28;20050;-72
2023/03/27 12:35:20;;;;;;;2.60;0.38;;;6.20;99.90;;;;;;5088258;28;20047;-72
2023/03/27 12:37:54;;;;;;;1.75;0.30;;;6.40;99.90;;;;;;5089591;28;20040;-72
2023/03/27 12:40:40;;;;;;;0.50;0.20;;;6.50;99.90;;;;;;5071131;28;20036;-72
2023/03/27 12:43:21;;;;;;;1.17;0.30;;;6.60;99.90;;;;;;5086711;28;20174;-72
2023/03/27 12:46:15;;;;;;;5.25;0.50;;;6.70;95.30;;;;;;5083217;28;20429;-72
2023/03/27 12:49:01;;;;;;;0.40;0.10;;;6.50;90.10;;;;;;5086331;28;20102;-72
2023/03/27 12:51:46;;;;;;;0.20;0.10;;;6.30;91.00;;;;;;5069055;28;20036;-72
2023/03/27 12:54:20;;;;;;;1.75;0.15;;;6.20;93.20;;;;;;5095288;28;20114;-76
2023/03/27 12:56:57;;;;;;;1.02;0.10;;;6.30;94.90;;;;;;5063548;28;20690;-72
2023/03/27 12:59:26;;;;;;;1.95;0.20;;;6.40;90.90;;;;;;5082463;28;20509;-71
2023/03/27 13:02:05;;;;;;;3.53;0.50;;;6.50;92.40;;;;;;5066454;28;20044;-72
2023/03/27 13:04:57;;;;;;;0.85;0.52;;;6.60;89.20;;;;;;5072618;28;20036;-72
2023/03/27 13:07:44;;;;;;;0.88;0.82;;;6.60;92.10;;;;;;5093076;28;20067;-72
2023/03/27 13:10:25;;;;;;;0.82;0.10;;;6.70;92.40;;;;;;5078529;28;20040;-72
2023/03/27 13:13:24;;;;;;;1.35;0.47;;;6.80;93.00;;;;;;5075377;28;20052;-72
2023/03/27 13:16:25;;;;;;;1.45;0.43;;;6.90;93.00;;;;;;5077676;28;20131;-72
2023/03/27 13:19:11;;;;;;;1.75;1.02;;;6.80;94.60;;;;;;5078189;28;20478;-72
2023/03/27 13:21:51;;;;;;;0.85;0.28;;;6.50;93.40;;;;;;5075408;28;20040;-72
2023/03/27 13:24:49;;;;;;;1.02;0.20;;;6.30;95.50;;;;;;5079305;28;20122;-72
2023/03/27 13:27:33;;;;;;;0.20;0.10;;;6.20;89.70;;;;;;5051950;28;20757;-72